Time;durP1;ratioP1;P1;durP2;ratioP2;P2;SDS_P1;SDS_P2;PMS_P1;PMS_P2;Temp;Humidity;BMP_temperature;BMP_pressure;BME280_temperature;BME280_humidity;BME280_pressure;Samples;Min_cycle;Max_cycle;Signal;HPM_P1;HPM_P2
2021/10/27 00:00:35;;;;;;;3.00;2.20;;;11.30;99.90;;;;;;5029285;28;20671;-76
2021/10/27 00:03:02;;;;;;;3.77;2.53;;;11.30;99.90;;;;;;5029470;28;20232;-75
2021/10/27 00:05:31;;;;;;;2.77;2.13;;;11.30;99.90;;;;;;5029384;28;20275;-75
2021/10/27 00:07:57;;;;;;;3.13;2.40;;;11.30;99.90;;;;;;5029208;28;20283;-75
2021/10/27 00:10:24;;;;;;;2.93;2.40;;;11.30;99.90;;;;;;5029298;28;20240;-75
2021/10/27 00:12:51;;;;;;;3.27;2.23;;;11.20;99.90;;;;;;5029507;28;20212;-75
2021/10/27 00:15:18;;;;;;;3.87;2.80;;;11.30;99.90;;;;;;5029161;28;20230;-74
2021/10/27 00:17:45;;;;;;;3.33;2.40;;;11.30;99.90;;;;;;5028453;28;21042;-74
2021/10/27 00:20:12;;;;;;;3.63;2.40;;;11.20;99.90;;;;;;5029194;28;20248;-74
2021/10/27 00:22:41;;;;;;;4.60;2.53;;;11.30;99.90;;;;;;5029227;28;20646;-75
2021/10/27 00:25:09;;;;;;;2.83;2.60;;;11.20;99.90;;;;;;5028997;28;20236;-75
2021/10/27 00:27:36;;;;;;;2.63;2.43;;;11.20;99.90;;;;;;5029369;28;20209;-75
2021/10/27 00:30:03;;;;;;;4.17;2.63;;;11.20;99.90;;;;;;5028882;28;20722;-75
2021/10/27 00:32:30;;;;;;;3.23;2.97;;;11.20;99.90;;;;;;5028721;28;20209;-75
2021/10/27 00:34:57;;;;;;;3.23;2.43;;;11.20;99.90;;;;;;5028579;28;20738;-74
2021/10/27 00:37:24;;;;;;;8.00;2.60;;;11.20;99.90;;;;;;5028748;28;20212;-74
2021/10/27 00:39:54;;;;;;;3.83;2.40;;;11.20;99.90;;;;;;5028789;28;20292;-74
2021/10/27 00:42:21;;;;;;;3.07;2.40;;;11.20;99.90;;;;;;5028501;28;20554;-74
2021/10/27 00:44:48;;;;;;;2.87;2.67;;;11.20;99.90;;;;;;5028476;28;20307;-74
2021/10/27 00:47:16;;;;;;;3.23;2.30;;;11.20;99.90;;;;;;5028479;28;20270;-74
2021/10/27 00:49:44;;;;;;;3.50;2.63;;;11.10;99.90;;;;;;5028312;28;20205;-74
2021/10/27 00:52:15;;;;;;;3.50;2.57;;;11.10;99.90;;;;;;5028064;28;20655;-75
2021/10/27 00:54:43;;;;;;;2.70;2.50;;;11.20;99.90;;;;;;5028532;28;20192;-74
2021/10/27 00:57:12;;;;;;;3.60;2.67;;;11.20;99.90;;;;;;5028422;28;20258;-74
2021/10/27 00:59:41;;;;;;;5.20;2.90;;;11.20;99.90;;;;;;5028354;28;20228;-74
2021/10/27 01:02:08;;;;;;;2.50;2.30;;;11.20;99.90;;;;;;5028146;28;20243;-77
2021/10/27 01:04:35;;;;;;;4.63;2.93;;;11.20;99.90;;;;;;5029173;28;20216;-78
2021/10/27 01:07:02;;;;;;;4.07;2.60;;;11.20;99.90;;;;;;5028470;28;20290;-78
2021/10/27 01:09:29;;;;;;;4.27;2.63;;;11.20;99.90;;;;;;5028800;28;20237;-78
2021/10/27 01:11:56;;;;;;;2.27;2.07;;;11.20;99.90;;;;;;5028558;28;20244;-75
2021/10/27 01:14:33;;;;;;;3.37;2.93;;;11.20;99.90;;;;;;5020497;28;20209;-75
2021/10/27 01:17:00;;;;;;;2.63;2.50;;;11.20;99.90;;;;;;5008299;28;20232;-75
2021/10/27 01:19:26;;;;;;;2.97;2.73;;;11.20;99.90;;;;;;5008745;28;20201;-75
2021/10/27 01:21:54;;;;;;;3.20;2.57;;;11.20;99.90;;;;;;5008789;28;20202;-75
2021/10/27 01:24:21;;;;;;;3.67;3.00;;;11.20;99.90;;;;;;5008620;28;20213;-75
2021/10/27 01:26:47;;;;;;;3.30;2.70;;;11.20;99.90;;;;;;5008485;28;20634;-75
2021/10/27 01:29:14;;;;;;;4.13;2.77;;;11.20;99.90;;;;;;5008344;28;20222;-75
2021/10/27 01:31:41;;;;;;;3.00;2.67;;;11.20;99.90;;;;;;5008462;28;20209;-75
2021/10/27 01:34:08;;;;;;;2.43;2.33;;;11.30;99.90;;;;;;5008612;28;20285;-75
2021/10/27 01:36:35;;;;;;;3.50;2.67;;;11.20;99.90;;;;;;5008111;28;20268;-75
2021/10/27 01:39:03;;;;;;;3.83;2.60;;;11.30;99.90;;;;;;5008466;28;20311;-74
2021/10/27 01:41:29;;;;;;;3.20;2.90;;;11.30;99.90;;;;;;5008154;28;20704;-74
2021/10/27 01:43:58;;;;;;;3.90;2.20;;;11.30;99.90;;;;;;5008369;28;20213;-73
2021/10/27 01:46:29;;;;;;;3.87;2.73;;;11.30;99.90;;;;;;5008116;28;20288;-74
2021/10/27 01:48:56;;;;;;;3.73;2.80;;;11.30;99.90;;;;;;5008082;28;20202;-74
2021/10/27 01:51:23;;;;;;;3.87;2.97;;;11.30;99.90;;;;;;5008022;28;20205;-74
2021/10/27 01:53:50;;;;;;;5.93;2.37;;;11.30;99.90;;;;;;5008044;28;20695;-74
2021/10/27 01:56:18;;;;;;;3.73;2.80;;;11.30;99.90;;;;;;5008038;28;20225;-73
2021/10/27 01:58:44;;;;;;;3.23;2.60;;;11.30;99.90;;;;;;5007839;28;20974;-74
2021/10/27 02:01:11;;;;;;;3.40;3.00;;;11.30;99.90;;;;;;5007696;28;20246;-74
2021/10/27 02:03:38;;;;;;;2.90;2.60;;;11.30;99.90;;;;;;5010699;28;20259;-73
2021/10/27 02:06:04;;;;;;;3.70;2.80;;;11.30;99.90;;;;;;5011526;28;20216;-74
2021/10/27 02:08:31;;;;;;;3.37;2.60;;;11.30;99.90;;;;;;5011761;28;20243;-74
2021/10/27 02:10:58;;;;;;;3.30;3.00;;;11.30;99.90;;;;;;5011517;28;20300;-74
2021/10/27 02:13:27;;;;;;;4.17;2.93;;;11.30;99.90;;;;;;5011523;28;20213;-73
2021/10/27 02:15:54;;;;;;;2.90;2.70;;;11.30;99.90;;;;;;5010874;28;20727;-74
2021/10/27 02:18:21;;;;;;;5.47;2.73;;;11.30;99.90;;;;;;5011492;28;20291;-74
2021/10/27 02:20:48;;;;;;;3.27;2.90;;;11.30;99.90;;;;;;5011530;28;20237;-73
2021/10/27 02:23:14;;;;;;;3.27;2.77;;;11.30;99.90;;;;;;5011488;28;20237;-74
2021/10/27 02:25:41;;;;;;;5.60;3.03;;;11.30;99.90;;;;;;5011681;28;20209;-74
2021/10/27 02:28:08;;;;;;;3.40;3.10;;;11.30;99.90;;;;;;5011533;28;20258;-75
2021/10/27 02:30:36;;;;;;;3.70;3.00;;;11.30;99.90;;;;;;5011818;28;20803;-84
2021/10/27 02:33:04;;;;;;;3.20;2.90;;;11.30;99.90;;;;;;5010918;28;20932;-75
2021/10/27 02:35:32;;;;;;;2.83;2.60;;;11.40;99.90;;;;;;5011194;28;20264;-74
2021/10/27 02:37:59;;;;;;;3.80;2.47;;;11.40;99.90;;;;;;5024532;28;20719;-75
2021/10/27 02:40:26;;;;;;;2.93;2.70;;;11.40;99.90;;;;;;5025590;28;20220;-74
2021/10/27 02:42:53;;;;;;;3.10;2.87;;;11.40;99.90;;;;;;5012041;28;20668;-75
2021/10/27 02:45:20;;;;;;;3.30;2.60;;;11.40;99.90;;;;;;5022804;28;20878;-75
2021/10/27 02:47:48;;;;;;;4.10;2.80;;;11.40;99.90;;;;;;5012739;28;20223;-74
2021/10/27 02:50:16;;;;;;;5.30;2.60;;;11.40;99.90;;;;;;5007349;28;20213;-74
2021/10/27 02:52:45;;;;;;;3.20;2.90;;;11.40;99.90;;;;;;5007237;28;20743;-75
2021/10/27 02:55:12;;;;;;;3.20;2.90;;;11.40;99.90;;;;;;5007387;28;20256;-74
2021/10/27 02:57:39;;;;;;;2.93;2.63;;;11.40;99.90;;;;;;5007518;28;20311;-75
2021/10/27 03:00:08;;;;;;;2.97;2.67;;;11.50;99.90;;;;;;5006979;28;20307;-75
2021/10/27 03:02:37;;;;;;;2.70;2.50;;;11.50;99.90;;;;;;5006830;28;20213;-74
2021/10/27 03:05:08;;;;;;;4.47;2.50;;;11.50;99.90;;;;;;5007235;28;20217;-75
2021/10/27 03:07:34;;;;;;;2.63;2.40;;;11.50;99.90;;;;;;5007059;28;20291;-75
2021/10/27 03:10:02;;;;;;;3.03;2.60;;;11.50;99.90;;;;;;5006838;28;20233;-75
2021/10/27 03:12:29;;;;;;;3.47;2.47;;;11.50;99.90;;;;;;5013627;28;20288;-75
2021/10/27 03:14:55;;;;;;;3.73;2.70;;;11.50;99.90;;;;;;5015017;28;20275;-75
2021/10/27 03:17:22;;;;;;;4.00;2.77;;;11.50;99.90;;;;;;5007931;28;20237;-75
2021/10/27 03:19:48;;;;;;;3.87;2.60;;;11.50;99.90;;;;;;5008731;28;20213;-75
2021/10/27 03:22:16;;;;;;;2.87;2.53;;;11.50;99.90;;;;;;5009137;28;20209;-75
2021/10/27 03:24:43;;;;;;;2.90;2.70;;;11.50;99.90;;;;;;5008861;28;20209;-75
2021/10/27 03:27:09;;;;;;;3.70;2.40;;;11.50;99.90;;;;;;5008762;28;20879;-75
2021/10/27 03:29:36;;;;;;;4.57;2.73;;;11.50;99.90;;;;;;5008911;28;20288;-75
2021/10/27 03:32:03;;;;;;;3.37;2.77;;;11.50;99.90;;;;;;5009135;28;20740;-74
2021/10/27 03:34:30;;;;;;;4.20;2.40;;;11.50;99.90;;;;;;5009937;28;20256;-75
2021/10/27 03:36:56;;;;;;;3.00;2.37;;;11.50;99.90;;;;;;5010067;28;20233;-75
2021/10/27 03:39:24;;;;;;;3.70;2.43;;;11.50;99.90;;;;;;5009678;28;20869;-74
2021/10/27 03:41:52;;;;;;;3.40;2.90;;;11.50;99.90;;;;;;5010272;28;20209;-75
2021/10/27 03:44:18;;;;;;;3.40;3.10;;;11.50;99.90;;;;;;5009686;28;20440;-75
2021/10/27 03:46:45;;;;;;;3.53;3.17;;;11.50;99.90;;;;;;5009420;28;20687;-75
2021/10/27 03:49:12;;;;;;;3.20;2.97;;;11.40;99.90;;;;;;5009724;28;20212;-75
2021/10/27 03:51:38;;;;;;;4.17;3.80;;;11.40;99.90;;;;;;5009936;28;20382;-75
2021/10/27 03:54:05;;;;;;;3.50;3.20;;;11.40;99.90;;;;;;5009415;28;20864;-75
2021/10/27 03:56:33;;;;;;;3.77;3.47;;;11.40;99.90;;;;;;5009615;28;20303;-75
2021/10/27 03:58:59;;;;;;;3.73;3.43;;;11.30;99.90;;;;;;5009744;28;20232;-75
2021/10/27 04:01:26;;;;;;;3.30;2.93;;;11.30;99.90;;;;;;5009212;28;20237;-75
2021/10/27 04:03:53;;;;;;;3.90;3.50;;;11.30;99.90;;;;;;5009589;28;20209;-75
2021/10/27 04:06:19;;;;;;;5.60;3.00;;;11.30;99.90;;;;;;5009395;28;20234;-75
2021/10/27 04:08:46;;;;;;;5.23;3.80;;;11.30;99.90;;;;;;5009532;28;20689;-75
2021/10/27 04:11:12;;;;;;;4.47;3.63;;;11.20;99.90;;;;;;5009468;28;20391;-75
2021/10/27 04:13:41;;;;;;;5.03;3.40;;;11.20;99.90;;;;;;5009815;28;20237;-75
2021/10/27 04:16:07;;;;;;;3.77;3.40;;;11.20;99.90;;;;;;5009086;28;20766;-75
2021/10/27 04:18:34;;;;;;;3.70;3.07;;;11.20;99.90;;;;;;5009668;28;20256;-75
2021/10/27 04:21:01;;;;;;;3.33;2.97;;;11.30;99.90;;;;;;5009458;28;20206;-75
2021/10/27 04:23:27;;;;;;;3.07;2.77;;;11.20;99.90;;;;;;5009023;28;20205;-75
2021/10/27 04:25:54;;;;;;;3.43;3.00;;;11.20;99.90;;;;;;5008670;28;20205;-75
2021/10/27 04:28:20;;;;;;;4.33;3.93;;;11.20;99.90;;;;;;5008953;28;20703;-75
2021/10/27 04:30:48;;;;;;;3.70;3.30;;;11.20;99.90;;;;;;5009112;28;20209;-75
2021/10/27 04:33:17;;;;;;;4.80;3.50;;;11.10;99.90;;;;;;5009040;28;20215;-75
2021/10/27 04:35:45;;;;;;;3.20;3.00;;;11.10;99.90;;;;;;5009277;28;20288;-75
2021/10/27 04:38:13;;;;;;;3.77;2.97;;;11.10;99.90;;;;;;5008945;28;20244;-74
2021/10/27 04:40:42;;;;;;;3.03;2.80;;;11.10;99.90;;;;;;5009068;28;20288;-75
2021/10/27 04:43:09;;;;;;;5.53;3.47;;;11.10;99.90;;;;;;5009060;28;20255;-75
2021/10/27 04:45:36;;;;;;;5.47;3.30;;;11.10;99.90;;;;;;5008977;28;20230;-75
2021/10/27 04:48:05;;;;;;;5.83;3.00;;;11.20;99.90;;;;;;5008889;28;20339;-75
2021/10/27 04:50:32;;;;;;;4.93;3.40;;;11.20;99.90;;;;;;5009107;28;20201;-75
2021/10/27 04:52:58;;;;;;;3.63;3.33;;;11.20;99.90;;;;;;5008556;28;20675;-75
2021/10/27 04:55:25;;;;;;;4.60;3.27;;;11.20;99.90;;;;;;5008720;28;20209;-74
2021/10/27 04:57:51;;;;;;;5.00;3.10;;;11.20;99.90;;;;;;5008889;28;20299;-74
2021/10/27 05:00:18;;;;;;;5.37;3.53;;;11.20;99.90;;;;;;5008419;28;20233;-74
2021/10/27 05:02:45;;;;;;;4.53;3.57;;;11.20;99.90;;;;;;5008818;28;20291;-75
2021/10/27 05:05:13;;;;;;;5.23;4.23;;;11.20;99.90;;;;;;5008630;28;20260;-74
2021/10/27 05:07:43;;;;;;;3.60;3.30;;;11.20;99.90;;;;;;5008649;28;20230;-74
2021/10/27 05:10:10;;;;;;;3.50;3.20;;;11.20;99.90;;;;;;5008191;28;20699;-75
2021/10/27 05:12:36;;;;;;;4.10;3.70;;;11.20;99.90;;;;;;5008680;28;20228;-75
2021/10/27 05:15:03;;;;;;;3.90;3.50;;;11.20;99.90;;;;;;5008498;28;20202;-74
2021/10/27 05:17:30;;;;;;;4.33;3.90;;;11.10;99.90;;;;;;5026208;28;20264;-75
2021/10/27 05:19:57;;;;;;;3.40;3.10;;;11.10;99.90;;;;;;5028361;28;20254;-75
2021/10/27 05:22:26;;;;;;;6.33;4.10;;;11.10;99.90;;;;;;5028253;28;20236;-76
2021/10/27 05:24:53;;;;;;;4.13;3.27;;;11.10;99.90;;;;;;5028170;28;20207;-75
2021/10/27 05:27:20;;;;;;;3.73;3.43;;;11.10;99.90;;;;;;5028062;28;20221;-75
2021/10/27 05:29:47;;;;;;;3.20;2.90;;;11.10;99.90;;;;;;5028306;28;20212;-76
2021/10/27 05:32:13;;;;;;;3.77;3.47;;;11.20;99.90;;;;;;5028074;28;20208;-75
2021/10/27 05:34:42;;;;;;;5.50;3.40;;;11.10;99.90;;;;;;5028320;28;20208;-74
2021/10/27 05:37:09;;;;;;;3.20;3.00;;;11.10;99.90;;;;;;5029923;28;20233;-75
2021/10/27 05:39:37;;;;;;;3.47;3.17;;;11.20;99.90;;;;;;5031785;28;20666;-75
2021/10/27 05:42:07;;;;;;;5.13;3.77;;;11.20;99.90;;;;;;5031744;28;20216;-75
2021/10/27 05:44:34;;;;;;;4.00;3.00;;;11.20;99.90;;;;;;5031818;28;20221;-75
2021/10/27 05:47:00;;;;;;;5.77;3.60;;;11.20;99.90;;;;;;5031471;28;20205;-75
2021/10/27 05:49:33;;;;;;;3.73;3.10;;;11.20;99.90;;;;;;5031681;28;20205;-75
2021/10/27 05:52:05;;;;;;;4.00;3.70;;;11.20;99.90;;;;;;5031936;28;20197;-75
2021/10/27 05:57:18;;;;;;;4.63;3.20;;;11.20;99.90;;;;;;5031475;28;20232;-75
2021/10/27 05:59:47;;;;;;;2.97;2.77;;;11.20;99.90;;;;;;5031555;28;20718;-75
2021/10/27 06:02:13;;;;;;;3.93;3.10;;;11.20;99.90;;;;;;5030926;28;20241;-75
2021/10/27 06:04:40;;;;;;;3.10;2.90;;;11.30;99.90;;;;;;5031578;28;20579;-75
2021/10/27 06:07:06;;;;;;;3.13;2.83;;;11.20;99.90;;;;;;5031412;28;20302;-75
2021/10/27 06:09:33;;;;;;;3.77;2.77;;;11.30;99.90;;;;;;5031272;28;20298;-75
2021/10/27 06:12:03;;;;;;;4.30;3.20;;;11.30;99.90;;;;;;5031597;28;20213;-75
2021/10/27 06:14:33;;;;;;;6.20;3.90;;;11.30;99.90;;;;;;5031317;28;20289;-75
2021/10/27 06:17:00;;;;;;;4.93;4.27;;;11.30;99.90;;;;;;5031238;28;20274;-75
2021/10/27 06:19:26;;;;;;;4.53;3.30;;;11.20;99.90;;;;;;5031476;28;21035;-75
2021/10/27 06:21:53;;;;;;;4.10;3.40;;;11.20;99.90;;;;;;5031027;28;20208;-75
2021/10/27 06:24:20;;;;;;;2.97;2.67;;;11.30;99.90;;;;;;5031017;28;20279;-75
2021/10/27 06:26:47;;;;;;;4.93;3.00;;;11.30;99.90;;;;;;5030964;28;20303;-75
2021/10/27 06:29:20;;;;;;;2.93;2.73;;;11.30;99.90;;;;;;5031065;28;20212;-74
2021/10/27 06:31:51;;;;;;;2.90;2.60;;;11.30;99.90;;;;;;5031146;28;20221;-75
2021/10/27 06:34:29;;;;;;;4.87;3.10;;;11.30;99.90;;;;;;5030902;28;20235;-75
2021/10/27 06:37:05;;;;;;;7.23;3.30;;;11.30;99.90;;;;;;5031120;28;20572;-75
2021/10/27 06:47:45;;;;;;;3.47;2.87;;;11.40;99.90;;;;;;5030114;28;20188;-75
2021/10/27 06:50:12;;;;;;;6.30;2.87;;;11.40;99.90;;;;;;5030543;28;20208;-75
2021/10/27 06:52:39;;;;;;;3.43;2.40;;;11.40;99.90;;;;;;5030819;28;20608;-75
2021/10/27 06:55:07;;;;;;;2.97;2.30;;;11.40;99.90;;;;;;5030634;28;20215;-75
2021/10/27 06:57:34;;;;;;;3.07;2.70;;;11.50;99.90;;;;;;5030515;28;20229;-75
2021/10/27 07:00:11;;;;;;;3.87;2.87;;;11.50;99.90;;;;;;5030561;28;20212;-75
2021/10/27 07:03:02;;;;;;;3.03;2.50;;;11.50;99.90;;;;;;5030457;28;20563;-75
2021/10/27 07:05:51;;;;;;;3.10;2.70;;;11.50;99.90;;;;;;5030347;28;20224;-75
2021/10/27 07:16:31;;;;;;;3.37;2.73;;;11.60;99.90;;;;;;5029700;28;20192;-75
2021/10/27 07:18:57;;;;;;;5.20;2.83;;;11.60;99.90;;;;;;5030162;28;20286;-75
2021/10/27 07:21:25;;;;;;;5.27;2.80;;;11.60;99.90;;;;;;5030310;28;20208;-75
2021/10/27 07:23:52;;;;;;;5.83;2.43;;;11.60;99.90;;;;;;5030146;28;20251;-75
2021/10/27 07:26:19;;;;;;;4.43;2.40;;;11.60;99.90;;;;;;5029943;28;20213;-75
2021/10/27 07:28:48;;;;;;;3.10;2.57;;;11.60;99.90;;;;;;5029919;28;20233;-75
2021/10/27 07:31:16;;;;;;;3.00;2.70;;;11.70;99.90;;;;;;5029927;28;20613;-75
2021/10/27 07:33:48;;;;;;;3.80;2.70;;;11.70;99.90;;;;;;5029863;28;20626;-75
2021/10/27 07:36:27;;;;;;;3.77;2.60;;;11.70;99.90;;;;;;5029827;28;20193;-75
2021/10/27 07:41:40;;;;;;;3.73;2.77;;;11.70;99.90;;;;;;5029644;28;20714;-75
2021/10/27 07:44:14;;;;;;;3.70;2.50;;;11.70;99.90;;;;;;5029417;28;20321;-75
2021/10/27 07:46:41;;;;;;;2.57;2.37;;;11.70;99.90;;;;;;5029495;28;20192;-75
2021/10/27 07:49:08;;;;;;;3.67;3.17;;;11.70;99.90;;;;;;5029605;28;20244;-75
2021/10/27 07:51:35;;;;;;;2.77;2.57;;;11.70;99.90;;;;;;5029873;28;20585;-75
2021/10/27 07:54:03;;;;;;;2.60;2.40;;;11.80;99.90;;;;;;5029713;28;20651;-75
2021/10/27 07:56:32;;;;;;;2.97;2.40;;;11.80;99.90;;;;;;5029592;28;20800;-75
2021/10/27 07:59:00;;;;;;;3.90;2.73;;;12.00;99.90;;;;;;5028902;28;20572;-75
2021/10/27 08:01:27;;;;;;;3.93;2.33;;;12.10;99.90;;;;;;5029129;28;20252;-75
2021/10/27 08:03:53;;;;;;;2.83;2.63;;;12.20;99.90;;;;;;5029621;28;20262;-75
2021/10/27 08:06:20;;;;;;;2.80;2.50;;;12.30;99.90;;;;;;5029225;28;20290;-75
2021/10/27 08:08:46;;;;;;;4.00;2.90;;;12.40;99.90;;;;;;5029366;28;20241;-75
2021/10/27 08:11:15;;;;;;;4.50;2.60;;;12.40;99.90;;;;;;5029297;28;20208;-75
2021/10/27 08:13:42;;;;;;;2.60;2.20;;;12.50;99.90;;;;;;5029329;28;20201;-75
2021/10/27 08:16:08;;;;;;;5.83;2.70;;;12.60;99.90;;;;;;5029197;28;20205;-75
2021/10/27 08:18:35;;;;;;;5.20;2.80;;;12.70;99.90;;;;;;5028577;28;20757;-75
2021/10/27 08:21:02;;;;;;;2.80;2.60;;;12.80;99.90;;;;;;5028910;28;20213;-75
2021/10/27 08:23:31;;;;;;;3.93;2.70;;;12.80;99.90;;;;;;5028850;28;20305;-75
2021/10/27 08:26:02;;;;;;;4.57;2.53;;;12.90;99.90;;;;;;5028804;28;20667;-75
2021/10/27 08:28:36;;;;;;;4.47;2.70;;;13.10;99.90;;;;;;5028747;28;20287;-75
2021/10/27 08:31:08;;;;;;;3.27;2.47;;;13.20;99.90;;;;;;5028886;28;20291;-75
2021/10/27 08:33:45;;;;;;;5.17;3.07;;;13.20;99.90;;;;;;5028776;28;20247;-75
2021/10/27 08:36:12;;;;;;;3.63;2.40;;;13.20;99.90;;;;;;5028624;28;20196;-75
2021/10/27 08:38:38;;;;;;;4.40;2.53;;;13.20;99.90;;;;;;5028634;28;20635;-76
2021/10/27 08:41:05;;;;;;;3.00;2.73;;;13.20;99.90;;;;;;5028936;28;20209;-75
2021/10/27 08:43:34;;;;;;;3.93;2.53;;;13.40;99.90;;;;;;5028295;28;20264;-75
2021/10/27 08:46:02;;;;;;;3.30;2.57;;;13.40;99.90;;;;;;5028873;28;20266;-75
2021/10/27 08:48:30;;;;;;;2.80;2.60;;;13.50;99.90;;;;;;5028247;28;20639;-75
2021/10/27 08:50:57;;;;;;;3.30;2.90;;;13.60;99.90;;;;;;5028522;28;20212;-75
2021/10/27 08:53:25;;;;;;;3.23;2.80;;;13.60;99.90;;;;;;5028061;28;20205;-75
2021/10/27 08:55:52;;;;;;;3.57;2.70;;;13.80;99.90;;;;;;5028504;28;20643;-74
2021/10/27 08:58:23;;;;;;;2.87;2.67;;;13.90;99.90;;;;;;5028229;28;20228;-75
2021/10/27 09:00:59;;;;;;;3.40;2.53;;;14.00;99.90;;;;;;5028204;28;20320;-76
2021/10/27 09:03:36;;;;;;;5.27;2.73;;;14.00;99.90;;;;;;5028462;28;20608;-75
2021/10/27 09:06:18;;;;;;;3.93;2.50;;;14.00;99.90;;;;;;5028259;28;20243;-75
2021/10/27 09:37:01;;;;;;;4.13;2.30;;;14.00;99.90;;;;;;5027855;28;20199;-75
2021/10/27 09:42:40;;;;;;;4.40;2.50;;;13.90;99.90;;;;;;5026658;28;20204;-75
2021/10/27 10:05:08;;;;;;;4.77;2.70;;;13.70;99.90;;;;;;5027415;28;20316;-75
2021/10/27 10:07:38;;;;;;;4.17;2.90;;;13.70;99.90;;;;;;5027334;28;20959;-74
2021/10/27 10:10:06;;;;;;;4.37;3.20;;;13.60;99.90;;;;;;5027357;28;20667;-74
2021/10/27 10:12:35;;;;;;;4.83;2.70;;;13.60;99.90;;;;;;5027764;28;20216;-75
2021/10/27 10:15:02;;;;;;;2.77;2.57;;;13.60;99.90;;;;;;5027455;28;20675;-75
2021/10/27 10:17:29;;;;;;;2.67;2.43;;;13.60;99.90;;;;;;5027293;28;20263;-75
2021/10/27 10:19:56;;;;;;;5.70;2.97;;;13.60;99.90;;;;;;5027622;28;20290;-75
2021/10/27 10:22:27;;;;;;;4.13;2.87;;;13.60;99.90;;;;;;5027582;28;20213;-75
2021/10/27 10:25:25;;;;;;;4.73;2.67;;;13.60;99.90;;;;;;5030532;28;20212;-75
2021/10/27 10:27:54;;;;;;;5.43;2.53;;;13.50;99.90;;;;;;5031100;28;20232;-74
2021/10/27 10:30:30;;;;;;;7.63;2.50;;;13.50;99.90;;;;;;5031122;28;20215;-75
2021/10/27 10:33:01;;;;;;;4.23;2.70;;;13.50;99.90;;;;;;5031100;28;20205;-75
2021/10/27 10:35:40;;;;;;;2.80;2.30;;;13.50;99.90;;;;;;5030876;28;20209;-75
2021/10/27 10:38:26;;;;;;;4.17;2.70;;;13.50;99.90;;;;;;5030855;28;20705;-75
2021/10/27 10:41:12;;;;;;;3.47;2.83;;;13.50;99.90;;;;;;5030903;28;20539;-75
2021/10/27 11:02:46;;;;;;;3.93;2.40;;;13.50;99.90;;;;;;5030077;28;20232;-75
2021/10/27 11:24:59;;;;;;;3.33;2.50;;;13.70;99.90;;;;;;5029831;28;20192;-75
2021/10/27 11:38:50;;;;;;;3.93;2.10;;;13.70;99.90;;;;;;5085701;28;20237;-74
2021/10/27 11:41:31;;;;;;;2.80;2.10;;;13.70;99.90;;;;;;5085636;28;20218;-74
2021/10/27 11:44:08;;;;;;;2.87;2.57;;;13.70;99.90;;;;;;5085629;28;20230;-74
2021/10/27 11:46:56;;;;;;;3.87;2.27;;;13.70;99.90;;;;;;5085424;28;20664;-74
2021/10/27 11:49:28;;;;;;;4.97;2.40;;;13.80;99.90;;;;;;5085622;28;20223;-74
2021/10/27 11:51:57;;;;;;;5.00;2.93;;;13.80;99.90;;;;;;5085649;28;20274;-74
2021/10/27 11:54:27;;;;;;;2.33;2.20;;;13.80;99.90;;;;;;5085373;28;20207;-74
2021/10/27 11:56:54;;;;;;;2.90;2.57;;;13.80;99.90;;;;;;5085552;28;20675;-75
2021/10/27 11:59:21;;;;;;;2.40;2.20;;;13.80;99.90;;;;;;5085251;28;20241;-74
2021/10/27 12:01:53;;;;;;;5.03;2.40;;;13.80;99.90;;;;;;5085376;28;20210;-74
2021/10/27 12:04:20;;;;;;;2.70;2.50;;;13.80;99.90;;;;;;5084950;28;20259;-74
2021/10/27 12:06:53;;;;;;;2.97;2.57;;;13.80;99.90;;;;;;5084993;28;20249;-74
2021/10/27 12:09:36;;;;;;;2.93;2.40;;;13.80;99.90;;;;;;5084910;28;20219;-74
2021/10/27 12:12:12;;;;;;;6.53;2.80;;;13.80;99.90;;;;;;5085218;28;20191;-74
2021/10/27 12:15:03;;;;;;;4.33;2.80;;;13.80;99.90;;;;;;5085001;28;20312;-74
2021/10/27 12:17:34;;;;;;;3.17;2.63;;;13.80;99.90;;;;;;5084901;28;20282;-74
2021/10/27 12:20:01;;;;;;;3.63;2.30;;;13.80;99.90;;;;;;5084941;28;20198;-74
2021/10/27 12:22:28;;;;;;;5.10;2.37;;;13.70;99.90;;;;;;5085053;28;20264;-74
2021/10/27 12:24:56;;;;;;;6.00;2.53;;;13.80;99.90;;;;;;5084732;28;20207;-74
2021/10/27 12:27:29;;;;;;;2.70;2.47;;;13.80;99.90;;;;;;5084325;28;20243;-74
2021/10/27 12:29:57;;;;;;;3.47;2.80;;;13.80;99.90;;;;;;5084424;28;20329;-74
2021/10/27 12:32:26;;;;;;;2.40;2.20;;;13.80;99.90;;;;;;5084639;28;20203;-75
2021/10/27 12:34:56;;;;;;;3.33;2.87;;;13.80;99.90;;;;;;5084716;28;20199;-74
2021/10/27 12:37:33;;;;;;;4.40;2.40;;;13.80;99.90;;;;;;5084787;28;20264;-75
2021/10/27 12:40:13;;;;;;;2.50;2.30;;;13.80;99.90;;;;;;5079889;28;20200;-75
2021/10/27 12:42:39;;;;;;;5.13;2.67;;;13.80;99.90;;;;;;5071092;28;20659;-74
2021/10/27 12:45:07;;;;;;;5.43;2.80;;;13.80;99.90;;;;;;5070978;28;20207;-74
2021/10/27 12:47:39;;;;;;;2.30;2.10;;;13.90;99.90;;;;;;5070634;28;20302;-74
2021/10/27 12:50:10;;;;;;;2.67;2.47;;;13.80;99.90;;;;;;5071081;28;20227;-75
2021/10/27 12:52:40;;;;;;;2.57;2.23;;;13.90;99.90;;;;;;5071008;28;20195;-74
2021/10/27 12:55:17;;;;;;;6.33;2.53;;;13.90;99.90;;;;;;5070749;28;20291;-74
2021/10/27 12:57:56;;;;;;;6.87;2.60;;;13.90;99.90;;;;;;5070708;28;20202;-74
2021/10/27 13:00:28;;;;;;;4.47;3.60;;;13.90;99.90;;;;;;5070648;28;20199;-74
2021/10/27 13:03:19;;;;;;;3.77;2.20;;;13.90;99.90;;;;;;5070639;28;20564;-75
2021/10/27 13:05:51;;;;;;;3.90;2.43;;;13.90;99.90;;;;;;5070438;28;20760;-74
2021/10/27 13:08:46;;;;;;;2.83;2.30;;;13.90;99.90;;;;;;5070651;28;20574;-74
2021/10/27 13:11:28;;;;;;;2.27;2.07;;;13.90;99.90;;;;;;5069903;28;20575;-73
2021/10/27 13:14:02;;;;;;;2.63;2.40;;;13.90;99.90;;;;;;5070272;28;20188;-75
2021/10/27 13:19:20;;;;;;;4.80;2.17;;;13.90;99.90;;;;;;5069885;28;20203;-74
2021/10/27 13:22:01;;;;;;;5.50;2.20;;;13.90;99.90;;;;;;5070377;28;20231;-74
2021/10/27 13:30:05;;;;;;;3.37;2.03;;;14.00;99.90;;;;;;5030495;28;20399;-74
2021/10/27 13:32:34;;;;;;;2.70;2.27;;;13.90;99.90;;;;;;5069664;28;20253;-75
2021/10/27 13:35:02;;;;;;;4.23;2.17;;;13.90;99.90;;;;;;5069710;28;20549;-74
2021/10/27 13:37:30;;;;;;;4.23;2.43;;;13.90;99.90;;;;;;5069796;28;20211;-74
2021/10/27 13:39:58;;;;;;;2.33;2.13;;;13.90;99.90;;;;;;5070008;28;20286;-75
2021/10/27 13:42:29;;;;;;;2.60;2.40;;;13.90;99.90;;;;;;5069507;28;20708;-74
2021/10/27 13:45:04;;;;;;;3.23;2.93;;;13.90;99.90;;;;;;5069842;28;20188;-75
2021/10/27 13:47:37;;;;;;;2.67;2.47;;;13.90;99.90;;;;;;5069634;28;20666;-74
2021/10/27 13:58:40;;;;;;;3.43;2.50;;;14.00;99.90;;;;;;5069226;28;20225;-74
2021/10/27 14:06:44;;;;;;;2.60;2.40;;;14.00;99.90;;;;;;5068997;28;20708;-74
2021/10/27 14:09:20;;;;;;;2.87;2.50;;;14.00;99.90;;;;;;5069197;28;20250;-74
2021/10/27 14:11:57;;;;;;;4.07;2.57;;;14.00;99.90;;;;;;5069296;28;20218;-74
2021/10/27 14:14:30;;;;;;;4.03;2.27;;;14.00;99.90;;;;;;5069280;28;20643;-74
2021/10/27 14:17:11;;;;;;;5.27;2.80;;;14.00;99.90;;;;;;5069192;28;20203;-74
2021/10/27 14:20:04;;;;;;;2.50;2.27;;;14.00;99.90;;;;;;5069163;28;20195;-74
2021/10/27 14:39:25;;;;;;;2.37;2.17;;;14.00;99.90;;;;;;5048557;28;20653;-75
2021/10/27 14:47:51;;;;;;;4.67;2.60;;;14.00;99.90;;;;;;5053889;28;20211;-74
2021/10/27 15:21:07;;;;;;;3.43;2.60;;;13.90;99.90;;;;;;5044448;28;20242;-74
2021/10/27 15:23:39;;;;;;;4.37;2.70;;;13.90;99.90;;;;;;5044543;28;20286;-74
2021/10/27 15:28:59;;;;;;;3.30;2.80;;;13.80;99.90;;;;;;5044201;28;20281;-74
2021/10/27 15:31:37;;;;;;;2.50;2.27;;;13.80;99.90;;;;;;5044096;28;20720;-74
2021/10/27 15:37:17;;;;;;;4.97;2.60;;;13.90;99.90;;;;;;4982436;28;20252;-74
2021/10/27 15:42:46;;;;;;;2.87;2.23;;;13.90;99.90;;;;;;5043635;28;20703;-75
2021/10/27 15:45:30;;;;;;;3.13;2.77;;;13.90;99.90;;;;;;5044206;28;20228;-74
2021/10/27 15:50:47;;;;;;;3.00;2.70;;;13.90;99.90;;;;;;5043606;28;20230;-75
2021/10/27 15:53:15;;;;;;;3.67;2.73;;;13.80;99.90;;;;;;5043914;28;20287;-75
2021/10/27 15:55:44;;;;;;;3.20;2.83;;;13.80;99.90;;;;;;5046464;28;20752;-75
2021/10/27 15:58:10;;;;;;;2.33;2.10;;;13.80;99.90;;;;;;5057695;28;20247;-74
2021/10/27 16:00:39;;;;;;;2.87;2.67;;;13.70;99.90;;;;;;5064171;28;20606;-75
2021/10/27 16:03:08;;;;;;;4.87;3.00;;;13.70;99.90;;;;;;5046299;28;20232;-76
2021/10/27 16:05:38;;;;;;;3.30;3.00;;;13.70;99.90;;;;;;5044006;28;20617;-75
2021/10/27 16:08:06;;;;;;;4.20;2.60;;;13.60;99.90;;;;;;5044187;28;20283;-76
2021/10/27 16:10:34;;;;;;;5.50;2.50;;;13.60;99.90;;;;;;5043623;28;20236;-76
2021/10/27 16:13:01;;;;;;;4.30;3.10;;;13.60;99.90;;;;;;5048956;28;20227;-75
2021/10/27 16:15:36;;;;;;;3.80;2.90;;;13.60;99.90;;;;;;5060027;28;20206;-75
2021/10/27 16:18:03;;;;;;;4.93;3.00;;;13.60;99.90;;;;;;5058128;28;20196;-75
2021/10/27 16:20:31;;;;;;;4.10;3.30;;;13.60;99.90;;;;;;5061085;28;20238;-75
2021/10/27 16:22:58;;;;;;;3.33;3.13;;;13.50;99.90;;;;;;5060889;28;20195;-75
2021/10/27 16:25:25;;;;;;;4.10;2.63;;;13.50;99.90;;;;;;5058407;28;20816;-75
2021/10/27 16:27:52;;;;;;;6.37;3.27;;;13.50;99.90;;;;;;5061746;28;20204;-75
2021/10/27 16:30:20;;;;;;;2.90;2.70;;;13.50;99.90;;;;;;5058102;28;20247;-75